sensor_id;sensor_type;location;lat;lon;timestamp;P1;durP1;ratioP1;P2;durP2;ratioP2
179;SDS011;78;48.788;9.010;2022-09-09T00:09:18;15.83;;;2.70;;
179;SDS011;78;48.788;9.010;2022-09-09T00:11:49;16.90;;;2.83;;
179;SDS011;78;48.788;9.010;2022-09-09T00:16:44;17.93;;;2.87;;
179;SDS011;78;48.788;9.010;2022-09-09T00:19:16;19.50;;;2.87;;
179;SDS011;78;48.788;9.010;2022-09-09T00:22:31;19.60;;;2.73;;
179;SDS011;78;48.788;9.010;2022-09-09T00:24:38;18.93;;;2.73;;
179;SDS011;78;48.788;9.010;2022-09-09T00:27:08;18.10;;;2.37;;
179;SDS011;78;48.788;9.010;2022-09-09T00:32:14;16.60;;;3.00;;
179;SDS011;78;48.788;9.010;2022-09-09T00:34:47;18.43;;;2.80;;
179;SDS011;78;48.788;9.010;2022-09-09T00:37:13;16.40;;;2.70;;
179;SDS011;78;48.788;9.010;2022-09-09T00:39:41;19.33;;;2.80;;
179;SDS011;78;48.788;9.010;2022-09-09T00:44:45;17.57;;;2.57;;
179;SDS011;78;48.788;9.010;2022-09-09T00:54:57;17.67;;;2.50;;
179;SDS011;78;48.788;9.010;2022-09-09T00:57:29;20.73;;;2.50;;
179;SDS011;78;48.788;9.010;2022-09-09T01:02:49;19.53;;;2.70;;
179;SDS011;78;48.788;9.010;2022-09-09T01:05:20;20.63;;;2.57;;
179;SDS011;78;48.788;9.010;2022-09-09T01:07:48;15.93;;;2.50;;
179;SDS011;78;48.788;9.010;2022-09-09T01:10:21;15.50;;;2.50;;
179;SDS011;78;48.788;9.010;2022-09-09T01:12:50;15.10;;;2.50;;
179;SDS011;78;48.788;9.010;2022-09-09T01:15:21;17.93;;;2.47;;
179;SDS011;78;48.788;9.010;2022-09-09T01:20:23;15.80;;;2.47;;
179;SDS011;78;48.788;9.010;2022-09-09T01:22:59;15.30;;;2.50;;
179;SDS011;78;48.788;9.010;2022-09-09T01:28:02;17.00;;;2.90;;
179;SDS011;78;48.788;9.010;2022-09-09T01:30:29;19.87;;;2.90;;
179;SDS011;78;48.788;9.010;2022-09-09T01:32:57;15.90;;;2.70;;
179;SDS011;78;48.788;9.010;2022-09-09T01:35:35;16.77;;;2.80;;
179;SDS011;78;48.788;9.010;2022-09-09T01:38:03;16.40;;;2.47;;
179;SDS011;78;48.788;9.010;2022-09-09T01:40:29;16.93;;;2.90;;
179;SDS011;78;48.788;9.010;2022-09-09T01:42:55;15.57;;;2.63;;
179;SDS011;78;48.788;9.010;2022-09-09T01:45:21;18.80;;;2.70;;
179;SDS011;78;48.788;9.010;2022-09-09T01:47:48;16.53;;;2.80;;
179;SDS011;78;48.788;9.010;2022-09-09T01:50:15;17.10;;;2.90;;
179;SDS011;78;48.788;9.010;2022-09-09T01:52:42;18.73;;;2.67;;
179;SDS011;78;48.788;9.010;2022-09-09T01:55:10;16.67;;;2.70;;
179;SDS011;78;48.788;9.010;2022-09-09T01:57:39;16.20;;;2.60;;
179;SDS011;78;48.788;9.010;2022-09-09T02:00:10;17.77;;;2.50;;
179;SDS011;78;48.788;9.010;2022-09-09T02:02:56;15.50;;;2.60;;
179;SDS011;78;48.788;9.010;2022-09-09T02:07:57;20.93;;;2.70;;
179;SDS011;78;48.788;9.010;2022-09-09T02:10:28;17.53;;;2.40;;
179;SDS011;78;48.788;9.010;2022-09-09T02:13:01;16.33;;;2.23;;
179;SDS011;78;48.788;9.010;2022-09-09T02:15:30;14.90;;;1.90;;
179;SDS011;78;48.788;9.010;2022-09-09T02:17:58;15.57;;;2.00;;
179;SDS011;78;48.788;9.010;2022-09-09T02:20:27;14.60;;;2.00;;
179;SDS011;78;48.788;9.010;2022-09-09T02:22:53;15.87;;;2.10;;
179;SDS011;78;48.788;9.010;2022-09-09T02:25:21;14.90;;;2.00;;
179;SDS011;78;48.788;9.010;2022-09-09T02:27:48;16.00;;;2.10;;
179;SDS011;78;48.788;9.010;2022-09-09T02:30:16;18.07;;;2.30;;
179;SDS011;78;48.788;9.010;2022-09-09T02:32:42;17.53;;;2.20;;
179;SDS011;78;48.788;9.010;2022-09-09T02:35:09;14.30;;;1.90;;
179;SDS011;78;48.788;9.010;2022-09-09T02:37:37;13.73;;;1.80;;
179;SDS011;78;48.788;9.010;2022-09-09T02:40:07;15.80;;;2.23;;
179;SDS011;78;48.788;9.010;2022-09-09T02:42:41;21.70;;;2.20;;
179;SDS011;78;48.788;9.010;2022-09-09T02:45:08;16.13;;;2.47;;
179;SDS011;78;48.788;9.010;2022-09-09T02:47:35;14.70;;;2.10;;
179;SDS011;78;48.788;9.010;2022-09-09T02:57:59;16.60;;;2.40;;
179;SDS011;78;48.788;9.010;2022-09-09T03:00:27;15.70;;;2.60;;
179;SDS011;78;48.788;9.010;2022-09-09T03:02:54;16.90;;;2.10;;
179;SDS011;78;48.788;9.010;2022-09-09T03:05:20;16.90;;;2.40;;
179;SDS011;78;48.788;9.010;2022-09-09T03:07:46;17.10;;;2.47;;
179;SDS011;78;48.788;9.010;2022-09-09T03:10:12;16.93;;;2.37;;
179;SDS011;78;48.788;9.010;2022-09-09T03:12:38;17.30;;;2.10;;
179;SDS011;78;48.788;9.010;2022-09-09T03:15:05;17.23;;;2.17;;
179;SDS011;78;48.788;9.010;2022-09-09T03:17:31;14.90;;;2.20;;
179;SDS011;78;48.788;9.010;2022-09-09T03:19:58;15.07;;;2.07;;
179;SDS011;78;48.788;9.010;2022-09-09T03:22:24;16.10;;;2.30;;
179;SDS011;78;48.788;9.010;2022-09-09T03:24:50;17.33;;;2.33;;
179;SDS011;78;48.788;9.010;2022-09-09T03:27:16;14.73;;;2.10;;
179;SDS011;78;48.788;9.010;2022-09-09T03:29:44;16.33;;;2.27;;
179;SDS011;78;48.788;9.010;2022-09-09T03:32:10;15.43;;;2.00;;
179;SDS011;78;48.788;9.010;2022-09-09T03:34:37;19.13;;;2.37;;
179;SDS011;78;48.788;9.010;2022-09-09T03:37:05;16.77;;;2.20;;
179;SDS011;78;48.788;9.010;2022-09-09T03:39:31;19.00;;;2.67;;
179;SDS011;78;48.788;9.010;2022-09-09T03:41:57;17.10;;;2.30;;
179;SDS011;78;48.788;9.010;2022-09-09T03:44:23;16.43;;;2.43;;
179;SDS011;78;48.788;9.010;2022-09-09T03:46:49;16.37;;;2.20;;
179;SDS011;78;48.788;9.010;2022-09-09T03:49:15;14.90;;;2.10;;
179;SDS011;78;48.788;9.010;2022-09-09T03:51:41;18.60;;;2.27;;
179;SDS011;78;48.788;9.010;2022-09-09T03:54:07;16.20;;;2.40;;
179;SDS011;78;48.788;9.010;2022-09-09T03:56:35;15.40;;;2.20;;
179;SDS011;78;48.788;9.010;2022-09-09T03:59:02;15.70;;;2.10;;
179;SDS011;78;48.788;9.010;2022-09-09T04:01:28;15.13;;;2.10;;
179;SDS011;78;48.788;9.010;2022-09-09T04:03:54;17.27;;;2.50;;
179;SDS011;78;48.788;9.010;2022-09-09T04:06:23;15.67;;;2.30;;
179;SDS011;78;48.788;9.010;2022-09-09T04:08:49;16.20;;;2.30;;
179;SDS011;78;48.788;9.010;2022-09-09T04:11:17;18.43;;;2.30;;
179;SDS011;78;48.788;9.010;2022-09-09T04:13:43;16.57;;;2.30;;
179;SDS011;78;48.788;9.010;2022-09-09T04:16:10;18.47;;;2.90;;
179;SDS011;78;48.788;9.010;2022-09-09T04:18:36;17.60;;;2.40;;
179;SDS011;78;48.788;9.010;2022-09-09T04:21:02;17.30;;;2.30;;
179;SDS011;78;48.788;9.010;2022-09-09T04:23:30;16.57;;;2.30;;
179;SDS011;78;48.788;9.010;2022-09-09T04:25:56;17.67;;;2.30;;
179;SDS011;78;48.788;9.010;2022-09-09T04:28:23;18.03;;;2.70;;
179;SDS011;78;48.788;9.010;2022-09-09T04:30:49;15.67;;;2.63;;
179;SDS011;78;48.788;9.010;2022-09-09T04:33:16;18.40;;;2.60;;
179;SDS011;78;48.788;9.010;2022-09-09T04:35:48;16.53;;;2.37;;
179;SDS011;78;48.788;9.010;2022-09-09T04:38:15;21.20;;;2.43;;
179;SDS011;78;48.788;9.010;2022-09-09T04:40:42;17.47;;;2.57;;
179;SDS011;78;48.788;9.010;2022-09-09T04:43:08;15.87;;;2.50;;
179;SDS011;78;48.788;9.010;2022-09-09T04:45:34;15.40;;;2.30;;
179;SDS011;78;48.788;9.010;2022-09-09T04:48:01;14.60;;;2.10;;
179;SDS011;78;48.788;9.010;2022-09-09T04:50:27;17.30;;;2.63;;
179;SDS011;78;48.788;9.010;2022-09-09T04:52:53;17.93;;;3.03;;
179;SDS011;78;48.788;9.010;2022-09-09T04:55:20;19.60;;;3.03;;
179;SDS011;78;48.788;9.010;2022-09-09T04:57:46;18.17;;;2.63;;
179;SDS011;78;48.788;9.010;2022-09-09T05:00:13;20.17;;;2.70;;
179;SDS011;78;48.788;9.010;2022-09-09T05:02:39;22.20;;;3.00;;
179;SDS011;78;48.788;9.010;2022-09-09T05:05:07;16.33;;;2.80;;
179;SDS011;78;48.788;9.010;2022-09-09T05:07:33;15.47;;;2.60;;
179;SDS011;78;48.788;9.010;2022-09-09T05:09:59;17.97;;;2.57;;
179;SDS011;78;48.788;9.010;2022-09-09T05:12:25;18.00;;;2.40;;
179;SDS011;78;48.788;9.010;2022-09-09T05:14:52;19.43;;;2.50;;
179;SDS011;78;48.788;9.010;2022-09-09T05:17:18;16.47;;;2.70;;
179;SDS011;78;48.788;9.010;2022-09-09T05:19:44;16.60;;;2.60;;
179;SDS011;78;48.788;9.010;2022-09-09T05:22:10;15.10;;;2.80;;
179;SDS011;78;48.788;9.010;2022-09-09T05:24:37;19.07;;;2.90;;
179;SDS011;78;48.788;9.010;2022-09-09T05:27:03;17.07;;;2.43;;
179;SDS011;78;48.788;9.010;2022-09-09T05:29:30;19.10;;;2.93;;
179;SDS011;78;48.788;9.010;2022-09-09T05:31:58;17.90;;;2.50;;
179;SDS011;78;48.788;9.010;2022-09-09T05:34:24;16.97;;;2.90;;
179;SDS011;78;48.788;9.010;2022-09-09T05:36:50;16.00;;;2.70;;
179;SDS011;78;48.788;9.010;2022-09-09T05:39:17;18.10;;;2.67;;
179;SDS011;78;48.788;9.010;2022-09-09T05:41:43;18.30;;;2.60;;
179;SDS011;78;48.788;9.010;2022-09-09T05:44:09;17.20;;;2.67;;
179;SDS011;78;48.788;9.010;2022-09-09T05:46:35;16.57;;;2.60;;
179;SDS011;78;48.788;9.010;2022-09-09T05:49:01;19.80;;;2.83;;
179;SDS011;78;48.788;9.010;2022-09-09T05:51:28;16.37;;;2.53;;
179;SDS011;78;48.788;9.010;2022-09-09T05:53:57;17.10;;;2.80;;
179;SDS011;78;48.788;9.010;2022-09-09T05:56:24;17.17;;;2.87;;
179;SDS011;78;48.788;9.010;2022-09-09T05:58:51;18.60;;;3.07;;
179;SDS011;78;48.788;9.010;2022-09-09T06:03:45;17.33;;;2.87;;
179;SDS011;78;48.788;9.010;2022-09-09T06:06:12;18.93;;;2.70;;
179;SDS011;78;48.788;9.010;2022-09-09T06:08:39;19.23;;;2.93;;
179;SDS011;78;48.788;9.010;2022-09-09T06:11:09;20.20;;;2.70;;
179;SDS011;78;48.788;9.010;2022-09-09T06:13:36;18.83;;;2.60;;
179;SDS011;78;48.788;9.010;2022-09-09T06:16:04;18.90;;;2.60;;
179;SDS011;78;48.788;9.010;2022-09-09T06:18:32;15.67;;;2.50;;
179;SDS011;78;48.788;9.010;2022-09-09T06:20:59;16.70;;;2.47;;
179;SDS011;78;48.788;9.010;2022-09-09T06:23:26;17.63;;;2.70;;
179;SDS011;78;48.788;9.010;2022-09-09T06:28:28;15.23;;;2.40;;
179;SDS011;78;48.788;9.010;2022-09-09T06:31:01;22.63;;;2.90;;
179;SDS011;78;48.788;9.010;2022-09-09T06:33:30;20.77;;;2.60;;
179;SDS011;78;48.788;9.010;2022-09-09T06:35:56;16.80;;;2.60;;
179;SDS011;78;48.788;9.010;2022-09-09T06:38:23;17.33;;;2.80;;
179;SDS011;78;48.788;9.010;2022-09-09T06:40:52;20.10;;;3.20;;
179;SDS011;78;48.788;9.010;2022-09-09T06:43:19;17.63;;;2.90;;
179;SDS011;78;48.788;9.010;2022-09-09T06:46:01;17.07;;;2.70;;
179;SDS011;78;48.788;9.010;2022-09-09T06:48:28;17.27;;;2.70;;
179;SDS011;78;48.788;9.010;2022-09-09T06:53:26;21.47;;;2.70;;
179;SDS011;78;48.788;9.010;2022-09-09T06:55:52;16.73;;;2.50;;
179;SDS011;78;48.788;9.010;2022-09-09T06:58:19;17.37;;;2.90;;
179;SDS011;78;48.788;9.010;2022-09-09T07:00:47;16.97;;;2.90;;
179;SDS011;78;48.788;9.010;2022-09-09T07:03:13;18.17;;;2.90;;
179;SDS011;78;48.788;9.010;2022-09-09T07:05:39;17.00;;;3.03;;
179;SDS011;78;48.788;9.010;2022-09-09T07:08:05;28.00;;;3.03;;
179;SDS011;78;48.788;9.010;2022-09-09T07:10:31;16.63;;;2.70;;
179;SDS011;78;48.788;9.010;2022-09-09T07:12:59;17.77;;;2.90;;
179;SDS011;78;48.788;9.010;2022-09-09T07:15:26;18.13;;;3.00;;
179;SDS011;78;48.788;9.010;2022-09-09T07:17:52;16.53;;;2.63;;
179;SDS011;78;48.788;9.010;2022-09-09T07:20:18;16.83;;;2.93;;
179;SDS011;78;48.788;9.010;2022-09-09T07:22:45;20.00;;;3.17;;
179;SDS011;78;48.788;9.010;2022-09-09T07:25:11;17.70;;;2.90;;
179;SDS011;78;48.788;9.010;2022-09-09T07:27:37;18.00;;;2.80;;
179;SDS011;78;48.788;9.010;2022-09-09T07:30:03;19.30;;;3.00;;
179;SDS011;78;48.788;9.010;2022-09-09T07:32:29;19.50;;;3.00;;
179;SDS011;78;48.788;9.010;2022-09-09T07:34:55;19.17;;;2.73;;
179;SDS011;78;48.788;9.010;2022-09-09T07:37:23;19.03;;;2.60;;
179;SDS011;78;48.788;9.010;2022-09-09T07:39:49;20.27;;;2.90;;
179;SDS011;78;48.788;9.010;2022-09-09T07:42:16;23.93;;;3.13;;
179;SDS011;78;48.788;9.010;2022-09-09T07:44:42;20.70;;;2.70;;
179;SDS011;78;48.788;9.010;2022-09-09T07:47:08;17.23;;;2.50;;
179;SDS011;78;48.788;9.010;2022-09-09T07:49:34;19.30;;;2.90;;
179;SDS011;78;48.788;9.010;2022-09-09T07:52:00;17.37;;;2.70;;
179;SDS011;78;48.788;9.010;2022-09-09T07:54:26;18.63;;;2.80;;
179;SDS011;78;48.788;9.010;2022-09-09T07:56:52;18.23;;;2.80;;
179;SDS011;78;48.788;9.010;2022-09-09T07:59:18;17.83;;;2.70;;
179;SDS011;78;48.788;9.010;2022-09-09T08:01:45;17.60;;;2.63;;
179;SDS011;78;48.788;9.010;2022-09-09T08:04:14;15.80;;;2.27;;
179;SDS011;78;48.788;9.010;2022-09-09T08:06:42;26.20;;;2.70;;
179;SDS011;78;48.788;9.010;2022-09-09T08:09:08;18.77;;;2.80;;
179;SDS011;78;48.788;9.010;2022-09-09T08:11:34;20.40;;;2.63;;
179;SDS011;78;48.788;9.010;2022-09-09T08:14:01;16.50;;;2.30;;
179;SDS011;78;48.788;9.010;2022-09-09T08:16:28;16.97;;;2.43;;
179;SDS011;78;48.788;9.010;2022-09-09T08:18:55;17.50;;;2.90;;
179;SDS011;78;48.788;9.010;2022-09-09T08:21:23;16.90;;;2.80;;
179;SDS011;78;48.788;9.010;2022-09-09T08:23:58;18.10;;;2.73;;
179;SDS011;78;48.788;9.010;2022-09-09T08:26:28;17.50;;;2.70;;
179;SDS011;78;48.788;9.010;2022-09-09T08:28:55;16.90;;;2.63;;
179;SDS011;78;48.788;9.010;2022-09-09T08:31:22;17.53;;;2.43;;
179;SDS011;78;48.788;9.010;2022-09-09T08:33:49;22.23;;;2.40;;
179;SDS011;78;48.788;9.010;2022-09-09T08:36:17;21.87;;;2.73;;
179;SDS011;78;48.788;9.010;2022-09-09T08:38:43;18.77;;;2.50;;
179;SDS011;78;48.788;9.010;2022-09-09T08:49:16;18.70;;;2.30;;
179;SDS011;78;48.788;9.010;2022-09-09T08:51:45;23.40;;;2.30;;
179;SDS011;78;48.788;9.010;2022-09-09T08:54:12;17.90;;;2.60;;
179;SDS011;78;48.788;9.010;2022-09-09T08:56:39;18.50;;;2.30;;
179;SDS011;78;48.788;9.010;2022-09-09T08:59:04;20.27;;;2.70;;
179;SDS011;78;48.788;9.010;2022-09-09T09:04:02;21.93;;;2.60;;
179;SDS011;78;48.788;9.010;2022-09-09T09:06:43;16.80;;;2.57;;
179;SDS011;78;48.788;9.010;2022-09-09T09:11:48;20.53;;;2.40;;
179;SDS011;78;48.788;9.010;2022-09-09T09:19:14;16.47;;;2.50;;
179;SDS011;78;48.788;9.010;2022-09-09T09:30:19;22.13;;;2.93;;
179;SDS011;78;48.788;9.010;2022-09-09T09:32:50;18.07;;;2.43;;
179;SDS011;78;48.788;9.010;2022-09-09T09:35:17;17.73;;;2.50;;
179;SDS011;78;48.788;9.010;2022-09-09T09:37:44;16.57;;;2.23;;
179;SDS011;78;48.788;9.010;2022-09-09T09:42:37;15.53;;;1.90;;
179;SDS011;78;48.788;9.010;2022-09-09T09:45:46;17.73;;;1.80;;
179;SDS011;78;48.788;9.010;2022-09-09T09:48:04;15.80;;;1.80;;
179;SDS011;78;48.788;9.010;2022-09-09T09:50:30;14.07;;;1.83;;
179;SDS011;78;48.788;9.010;2022-09-09T09:52:58;16.37;;;2.10;;
179;SDS011;78;48.788;9.010;2022-09-09T09:55:25;15.83;;;2.03;;
179;SDS011;78;48.788;9.010;2022-09-09T09:57:51;15.33;;;2.10;;
179;SDS011;78;48.788;9.010;2022-09-09T10:02:44;14.80;;;2.00;;
179;SDS011;78;48.788;9.010;2022-09-09T10:05:18;15.90;;;2.00;;
179;SDS011;78;48.788;9.010;2022-09-09T10:07:45;18.10;;;2.30;;
179;SDS011;78;48.788;9.010;2022-09-09T10:10:13;16.60;;;2.10;;
179;SDS011;78;48.788;9.010;2022-09-09T10:17:57;17.30;;;2.20;;
179;SDS011;78;48.788;9.010;2022-09-09T10:22:58;21.23;;;2.67;;
179;SDS011;78;48.788;9.010;2022-09-09T10:38:30;18.00;;;2.60;;
179;SDS011;78;48.788;9.010;2022-09-09T10:41:00;15.20;;;2.00;;
179;SDS011;78;48.788;9.010;2022-09-09T10:43:42;15.30;;;2.17;;
179;SDS011;78;48.788;9.010;2022-09-09T10:54:23;18.43;;;3.00;;
179;SDS011;78;48.788;9.010;2022-09-09T10:56:54;20.50;;;2.70;;
179;SDS011;78;48.788;9.010;2022-09-09T10:59:29;18.57;;;2.80;;
179;SDS011;78;48.788;9.010;2022-09-09T11:04:39;22.00;;;3.03;;
179;SDS011;78;48.788;9.010;2022-09-09T11:07:06;22.93;;;2.50;;
179;SDS011;78;48.788;9.010;2022-09-09T11:09:36;16.00;;;2.30;;
179;SDS011;78;48.788;9.010;2022-09-09T11:12:04;18.33;;;2.63;;
179;SDS011;78;48.788;9.010;2022-09-09T11:16:58;17.17;;;2.30;;
179;SDS011;78;48.788;9.010;2022-09-09T11:19:41;20.70;;;2.40;;
179;SDS011;78;48.788;9.010;2022-09-09T11:22:14;16.40;;;2.27;;
179;SDS011;78;48.788;9.010;2022-09-09T11:24:46;17.30;;;2.27;;
179;SDS011;78;48.788;9.010;2022-09-09T11:27:19;17.90;;;2.30;;
179;SDS011;78;48.788;9.010;2022-09-09T11:29:57;15.80;;;2.40;;
179;SDS011;78;48.788;9.010;2022-09-09T11:37:53;17.90;;;2.30;;
179;SDS011;78;48.788;9.010;2022-09-09T11:40:24;14.70;;;2.10;;
179;SDS011;78;48.788;9.010;2022-09-09T11:45:37;17.00;;;2.33;;
179;SDS011;78;48.788;9.010;2022-09-09T11:48:04;16.27;;;2.60;;
179;SDS011;78;48.788;9.010;2022-09-09T11:50:37;15.40;;;2.30;;
179;SDS011;78;48.788;9.010;2022-09-09T11:55:40;17.80;;;2.20;;
179;SDS011;78;48.788;9.010;2022-09-09T11:58:14;17.20;;;1.87;;
179;SDS011;78;48.788;9.010;2022-09-09T12:00:42;15.63;;;1.90;;
179;SDS011;78;48.788;9.010;2022-09-09T12:05:56;15.60;;;1.90;;
179;SDS011;78;48.788;9.010;2022-09-09T12:08:26;15.20;;;1.80;;
179;SDS011;78;48.788;9.010;2022-09-09T12:10:54;17.50;;;1.67;;
179;SDS011;78;48.788;9.010;2022-09-09T12:13:22;15.10;;;1.73;;
179;SDS011;78;48.788;9.010;2022-09-09T12:15:49;15.30;;;1.90;;
179;SDS011;78;48.788;9.010;2022-09-09T12:18:22;16.50;;;1.70;;
179;SDS011;78;48.788;9.010;2022-09-09T12:23:36;14.97;;;1.83;;
179;SDS011;78;48.788;9.010;2022-09-09T12:26:07;15.57;;;1.80;;
179;SDS011;78;48.788;9.010;2022-09-09T12:28:41;14.57;;;1.80;;
179;SDS011;78;48.788;9.010;2022-09-09T12:33:43;15.73;;;1.80;;
179;SDS011;78;48.788;9.010;2022-09-09T12:36:31;16.10;;;1.70;;
179;SDS011;78;48.788;9.010;2022-09-09T12:38:57;14.27;;;1.50;;
179;SDS011;78;48.788;9.010;2022-09-09T12:41:25;14.80;;;1.60;;
179;SDS011;78;48.788;9.010;2022-09-09T12:44:02;16.87;;;1.70;;
179;SDS011;78;48.788;9.010;2022-09-09T12:46:36;13.90;;;1.50;;
179;SDS011;78;48.788;9.010;2022-09-09T12:49:03;15.50;;;1.80;;
179;SDS011;78;48.788;9.010;2022-09-09T12:51:30;14.27;;;1.70;;
179;SDS011;78;48.788;9.010;2022-09-09T12:53:58;14.97;;;1.50;;
179;SDS011;78;48.788;9.010;2022-09-09T12:56:28;13.53;;;1.50;;
179;SDS011;78;48.788;9.010;2022-09-09T12:58:56;14.30;;;1.77;;
179;SDS011;78;48.788;9.010;2022-09-09T13:01:27;14.23;;;1.50;;
179;SDS011;78;48.788;9.010;2022-09-09T13:03:53;18.73;;;1.80;;
179;SDS011;78;48.788;9.010;2022-09-09T13:06:21;14.03;;;1.70;;
179;SDS011;78;48.788;9.010;2022-09-09T13:08:48;15.33;;;1.70;;
179;SDS011;78;48.788;9.010;2022-09-09T13:11:19;15.10;;;1.70;;
179;SDS011;78;48.788;9.010;2022-09-09T13:13:50;16.00;;;1.73;;
179;SDS011;78;48.788;9.010;2022-09-09T13:16:19;14.30;;;1.70;;
179;SDS011;78;48.788;9.010;2022-09-09T13:18:45;19.20;;;1.70;;
179;SDS011;78;48.788;9.010;2022-09-09T13:21:12;16.73;;;1.80;;
179;SDS011;78;48.788;9.010;2022-09-09T13:23:39;15.90;;;1.90;;
179;SDS011;78;48.788;9.010;2022-09-09T13:26:21;14.90;;;1.70;;
179;SDS011;78;48.788;9.010;2022-09-09T13:28:48;16.10;;;1.80;;
179;SDS011;78;48.788;9.010;2022-09-09T13:33:46;16.67;;;2.10;;
179;SDS011;78;48.788;9.010;2022-09-09T13:36:12;14.20;;;1.50;;
179;SDS011;78;48.788;9.010;2022-09-09T13:41:21;14.00;;;1.60;;
179;SDS011;78;48.788;9.010;2022-09-09T13:43:48;14.00;;;1.50;;
179;SDS011;78;48.788;9.010;2022-09-09T13:49:00;14.63;;;1.57;;
179;SDS011;78;48.788;9.010;2022-09-09T13:51:29;14.73;;;1.63;;
179;SDS011;78;48.788;9.010;2022-09-09T13:53:56;14.70;;;1.47;;
179;SDS011;78;48.788;9.010;2022-09-09T13:56:22;20.27;;;1.83;;
179;SDS011;78;48.788;9.010;2022-09-09T13:58:48;15.03;;;1.80;;
179;SDS011;78;48.788;9.010;2022-09-09T14:01:14;13.77;;;1.50;;
179;SDS011;78;48.788;9.010;2022-09-09T14:03:40;14.03;;;1.60;;
179;SDS011;78;48.788;9.010;2022-09-09T14:06:06;16.37;;;1.80;;
179;SDS011;78;48.788;9.010;2022-09-09T14:08:32;14.40;;;1.80;;
179;SDS011;78;48.788;9.010;2022-09-09T14:11:02;17.10;;;1.70;;
179;SDS011;78;48.788;9.010;2022-09-09T14:13:28;15.23;;;1.70;;
179;SDS011;78;48.788;9.010;2022-09-09T14:15:54;18.20;;;1.50;;
179;SDS011;78;48.788;9.010;2022-09-09T14:18:21;15.53;;;1.90;;
179;SDS011;78;48.788;9.010;2022-09-09T14:20:48;14.97;;;1.50;;
179;SDS011;78;48.788;9.010;2022-09-09T14:23:15;15.30;;;1.70;;
179;SDS011;78;48.788;9.010;2022-09-09T14:25:44;17.40;;;1.50;;
179;SDS011;78;48.788;9.010;2022-09-09T14:28:11;15.80;;;1.70;;
179;SDS011;78;48.788;9.010;2022-09-09T14:30:38;14.70;;;1.60;;
179;SDS011;78;48.788;9.010;2022-09-09T14:33:04;15.27;;;1.97;;
179;SDS011;78;48.788;9.010;2022-09-09T14:35:30;16.53;;;1.50;;
179;SDS011;78;48.788;9.010;2022-09-09T14:37:58;14.80;;;1.53;;
179;SDS011;78;48.788;9.010;2022-09-09T14:40:26;14.73;;;1.70;;
179;SDS011;78;48.788;9.010;2022-09-09T14:42:52;14.53;;;1.50;;
179;SDS011;78;48.788;9.010;2022-09-09T14:45:18;13.90;;;1.50;;
179;SDS011;78;48.788;9.010;2022-09-09T14:47:46;15.40;;;1.50;;
179;SDS011;78;48.788;9.010;2022-09-09T14:50:12;14.03;;;1.50;;
179;SDS011;78;48.788;9.010;2022-09-09T14:52:38;13.53;;;1.40;;
179;SDS011;78;48.788;9.010;2022-09-09T14:55:04;14.30;;;1.80;;
179;SDS011;78;48.788;9.010;2022-09-09T14:57:32;14.53;;;1.80;;
179;SDS011;78;48.788;9.010;2022-09-09T14:59:59;14.70;;;1.57;;
179;SDS011;78;48.788;9.010;2022-09-09T15:02:25;14.07;;;1.50;;
179;SDS011;78;48.788;9.010;2022-09-09T15:04:52;15.17;;;1.57;;
179;SDS011;78;48.788;9.010;2022-09-09T15:07:22;14.43;;;1.70;;
179;SDS011;78;48.788;9.010;2022-09-09T15:09:48;14.70;;;1.50;;
179;SDS011;78;48.788;9.010;2022-09-09T15:12:14;14.10;;;1.80;;
179;SDS011;78;48.788;9.010;2022-09-09T15:14:40;17.73;;;1.90;;
179;SDS011;78;48.788;9.010;2022-09-09T15:17:07;14.77;;;1.70;;
179;SDS011;78;48.788;9.010;2022-09-09T15:19:33;16.87;;;1.97;;
179;SDS011;78;48.788;9.010;2022-09-09T15:21:59;16.40;;;1.90;;
179;SDS011;78;48.788;9.010;2022-09-09T15:24:25;14.80;;;1.70;;
179;SDS011;78;48.788;9.010;2022-09-09T15:26:51;14.90;;;2.00;;
179;SDS011;78;48.788;9.010;2022-09-09T15:29:18;14.57;;;1.60;;
179;SDS011;78;48.788;9.010;2022-09-09T15:31:44;16.43;;;1.90;;
179;SDS011;78;48.788;9.010;2022-09-09T15:34:11;15.80;;;1.77;;
179;SDS011;78;48.788;9.010;2022-09-09T15:36:44;16.80;;;2.20;;
179;SDS011;78;48.788;9.010;2022-09-09T15:39:12;19.90;;;2.00;;
179;SDS011;78;48.788;9.010;2022-09-09T15:41:40;18.87;;;2.20;;
179;SDS011;78;48.788;9.010;2022-09-09T15:44:06;15.40;;;1.90;;
179;SDS011;78;48.788;9.010;2022-09-09T15:46:36;17.90;;;2.23;;
179;SDS011;78;48.788;9.010;2022-09-09T15:49:03;17.77;;;2.00;;
179;SDS011;78;48.788;9.010;2022-09-09T15:51:29;15.70;;;2.00;;
179;SDS011;78;48.788;9.010;2022-09-09T15:53:56;16.80;;;2.30;;
179;SDS011;78;48.788;9.010;2022-09-09T15:56:23;19.27;;;2.00;;
179;SDS011;78;48.788;9.010;2022-09-09T15:58:49;18.50;;;2.23;;
179;SDS011;78;48.788;9.010;2022-09-09T16:01:17;20.87;;;2.20;;
179;SDS011;78;48.788;9.010;2022-09-09T16:03:44;19.83;;;2.17;;
179;SDS011;78;48.788;9.010;2022-09-09T16:06:11;17.70;;;2.23;;
179;SDS011;78;48.788;9.010;2022-09-09T16:08:38;14.30;;;1.83;;
179;SDS011;78;48.788;9.010;2022-09-09T16:11:13;17.77;;;2.10;;
179;SDS011;78;48.788;9.010;2022-09-09T16:13:43;17.13;;;2.07;;
179;SDS011;78;48.788;9.010;2022-09-09T16:16:12;16.20;;;2.20;;
179;SDS011;78;48.788;9.010;2022-09-09T16:18:40;15.80;;;1.90;;
179;SDS011;78;48.788;9.010;2022-09-09T16:21:06;14.53;;;1.70;;
179;SDS011;78;48.788;9.010;2022-09-09T16:23:33;14.10;;;1.70;;
179;SDS011;78;48.788;9.010;2022-09-09T16:26:00;17.27;;;1.90;;
179;SDS011;78;48.788;9.010;2022-09-09T16:28:26;17.33;;;1.90;;
179;SDS011;78;48.788;9.010;2022-09-09T16:30:52;14.00;;;1.60;;
179;SDS011;78;48.788;9.010;2022-09-09T16:33:18;15.63;;;1.63;;
179;SDS011;78;48.788;9.010;2022-09-09T16:35:44;14.27;;;1.60;;
179;SDS011;78;48.788;9.010;2022-09-09T16:38:10;15.87;;;1.90;;
179;SDS011;78;48.788;9.010;2022-09-09T16:40:37;14.70;;;1.67;;
179;SDS011;78;48.788;9.010;2022-09-09T16:43:03;15.67;;;1.70;;
179;SDS011;78;48.788;9.010;2022-09-09T16:45:30;13.80;;;1.50;;
179;SDS011;78;48.788;9.010;2022-09-09T16:47:57;17.33;;;1.70;;
179;SDS011;78;48.788;9.010;2022-09-09T16:50:23;14.30;;;1.50;;
179;SDS011;78;48.788;9.010;2022-09-09T16:52:50;16.70;;;1.87;;
179;SDS011;78;48.788;9.010;2022-09-09T16:55:16;15.57;;;1.70;;
179;SDS011;78;48.788;9.010;2022-09-09T16:57:45;14.87;;;1.77;;
179;SDS011;78;48.788;9.010;2022-09-09T17:00:13;14.77;;;1.80;;
179;SDS011;78;48.788;9.010;2022-09-09T17:02:41;14.80;;;1.80;;
179;SDS011;78;48.788;9.010;2022-09-09T17:05:07;14.40;;;1.70;;
179;SDS011;78;48.788;9.010;2022-09-09T17:07:34;15.20;;;1.87;;
179;SDS011;78;48.788;9.010;2022-09-09T17:10:00;14.60;;;1.80;;
179;SDS011;78;48.788;9.010;2022-09-09T17:12:26;14.80;;;1.70;;
179;SDS011;78;48.788;9.010;2022-09-09T17:14:52;16.23;;;1.80;;
179;SDS011;78;48.788;9.010;2022-09-09T17:17:20;15.20;;;2.00;;
179;SDS011;78;48.788;9.010;2022-09-09T17:19:46;15.70;;;1.77;;
179;SDS011;78;48.788;9.010;2022-09-09T17:22:12;14.97;;;1.70;;
179;SDS011;78;48.788;9.010;2022-09-09T17:24:39;15.33;;;1.83;;
179;SDS011;78;48.788;9.010;2022-09-09T17:27:05;15.70;;;1.97;;
179;SDS011;78;48.788;9.010;2022-09-09T17:29:32;15.17;;;1.70;;
179;SDS011;78;48.788;9.010;2022-09-09T17:32:00;14.93;;;1.80;;
179;SDS011;78;48.788;9.010;2022-09-09T17:34:27;15.37;;;1.80;;
179;SDS011;78;48.788;9.010;2022-09-09T17:36:53;14.27;;;1.70;;
179;SDS011;78;48.788;9.010;2022-09-09T17:39:19;14.40;;;1.80;;
179;SDS011;78;48.788;9.010;2022-09-09T17:41:46;14.90;;;1.70;;
179;SDS011;78;48.788;9.010;2022-09-09T17:44:13;14.90;;;1.87;;
179;SDS011;78;48.788;9.010;2022-09-09T17:46:40;14.80;;;1.80;;
179;SDS011;78;48.788;9.010;2022-09-09T17:49:08;16.30;;;1.90;;
179;SDS011;78;48.788;9.010;2022-09-09T17:51:34;14.87;;;1.90;;
179;SDS011;78;48.788;9.010;2022-09-09T17:54:02;17.20;;;1.93;;
179;SDS011;78;48.788;9.010;2022-09-09T17:56:29;14.33;;;1.80;;
179;SDS011;78;48.788;9.010;2022-09-09T17:58:56;16.27;;;2.27;;
179;SDS011;78;48.788;9.010;2022-09-09T18:01:26;16.17;;;2.00;;
179;SDS011;78;48.788;9.010;2022-09-09T18:03:53;14.80;;;1.90;;
179;SDS011;78;48.788;9.010;2022-09-09T18:06:21;16.27;;;2.33;;
179;SDS011;78;48.788;9.010;2022-09-09T18:08:49;17.33;;;2.20;;
179;SDS011;78;48.788;9.010;2022-09-09T18:11:16;15.53;;;2.07;;